Time;durP1;ratioP1;P1;durP2;ratioP2;P2;SDS_P1;SDS_P2;PMS_P1;PMS_P2;Temp;Humidity;BMP_temperature;BMP_pressure;BME280_temperature;BME280_humidity;BME280_pressure;Samples;Min_cycle;Max_cycle;Signal;HPM_P1;HPM_P2
2021/12/16 00:08:12;;;;;;;40.03;2.65;;;8.90;46.60;;;;;;5031399;28;20172;-69
2021/12/16 00:10:48;;;;;;;26.63;2.10;;;;;;;;;;5031616;28;20179;-69
2021/12/16 00:32:19;;;;;;;19.70;1.90;;;9.00;44.60;;;;;;5031314;28;20279;-71
2021/12/16 00:34:47;;;;;;;35.53;2.78;;;8.70;45.00;;;;;;5023011;28;20204;-72
2021/12/16 00:37:13;;;;;;;62.00;3.63;;;;;;;;;;5030652;28;20180;-71
2021/12/16 00:39:41;;;;;;;50.13;3.22;;;;;;;;;;5029202;28;20235;-70
2021/12/16 00:42:14;;;;;;;27.63;2.28;;;;;;;;;;5030175;28;20196;-69
2021/12/16 00:49:53;;;;;;;47.30;2.78;;;;;;;;;;5031162;28;20960;-69
2021/12/16 00:57:54;;;;;;;22.48;2.05;;;8.80;44.90;;;;;;5030564;28;20184;-70
2021/12/16 01:00:28;;;;;;;27.07;2.00;;;8.80;45.30;;;;;;5031296;28;20181;-72
2021/12/16 01:51:36;;;;;;;32.60;3.00;;;;;;;;;;5011396;28;20278;-69
2021/12/16 01:57:03;;;;;;;25.90;2.13;;;9.10;44.10;;;;;;5007780;28;20367;-70
2021/12/16 01:59:35;;;;;;;26.08;2.08;;;9.00;44.70;;;;;;5011962;28;20181;-69
2021/12/16 02:02:12;;;;;;;22.15;2.30;;;;;;;;;;5011470;28;20213;-69
2021/12/16 02:04:54;;;;;;;21.80;2.08;;;8.90;45.30;;;;;;5011951;28;20209;-70
2021/12/16 02:07:45;;;;;;;41.53;2.60;;;;;;;;;;5011492;28;20185;-74
2021/12/16 02:10:11;;;;;;;30.75;2.30;;;;;;;;;;5011394;28;20280;-69
2021/12/16 02:12:58;;;;;;;22.88;2.00;;;;;;;;;;5011516;28;20181;-73
2021/12/16 02:32:06;;;;;;;25.13;2.05;;;;;;;;;;5033499;28;20203;-73
2021/12/16 02:34:59;;;;;;;32.90;2.40;;;8.50;49.30;;;;;;5033140;28;20173;-69
2021/12/16 02:37:31;;;;;;;37.05;2.65;;;8.50;48.60;;;;;;5032913;28;20227;-74
2021/12/16 02:39:58;;;;;;;23.10;2.20;;;8.70;47.90;;;;;;5032265;28;20180;-69
2021/12/16 02:42:35;;;;;;;18.42;2.03;;;;;;;;;;5032735;28;20211;-70
2021/12/16 02:50:17;;;;;;;28.25;2.28;;;7.90;50.70;;;;;;5033587;28;20188;-72
2021/12/16 02:52:44;;;;;;;28.35;2.10;;;;;;;;;;5032796;28;20549;-71
2021/12/16 02:55:11;;;;;;;26.00;2.55;;;;;;;;;;5028885;28;20220;-73
2021/12/16 02:57:45;;;;;;;31.40;2.53;;;;;;;;;;5031029;28;20184;-69
2021/12/16 03:00:14;;;;;;;28.67;2.80;;;;;;;;;;5033243;28;20817;-69
2021/12/16 03:02:43;;;;;;;34.10;2.70;;;7.70;52.40;;;;;;5032860;28;20177;-72
2021/12/16 03:05:11;;;;;;;34.88;2.60;;;;;;;;;;5032547;28;20188;-69
2021/12/16 03:15:26;;;;;;;15.98;2.30;;;7.90;53.60;;;;;;5032479;28;20197;-73
2021/12/16 03:18:00;;;;;;;20.63;2.97;;;7.70;53.50;;;;;;5031801;28;20668;-73
2021/12/16 03:31:25;;;;;;;17.67;2.08;;;7.80;52.90;;;;;;5032305;28;20184;-73
2021/12/16 03:38:57;;;;;;;21.15;2.75;;;8.10;51.50;;;;;;5031401;28;20278;-71
2021/12/16 03:41:25;;;;;;;28.63;2.78;;;8.10;51.10;;;;;;5024943;28;20283;-71
2021/12/16 03:43:53;;;;;;;16.48;1.95;;;8.10;49.90;;;;;;5032621;28;20184;-71
2021/12/16 03:46:26;;;;;;;25.23;3.30;;;8.20;50.60;;;;;;5031523;28;20188;-71
2021/12/16 03:48:58;;;;;;;19.58;2.25;;;8.30;49.60;;;;;;5031616;28;20199;-72
2021/12/16 03:51:39;;;;;;;18.33;2.10;;;8.30;49.70;;;;;;5032087;28;20667;-71
2021/12/16 03:54:13;;;;;;;18.77;2.53;;;8.50;49.00;;;;;;5030935;28;20216;-72
2021/12/16 03:56:40;;;;;;;22.10;3.88;;;8.50;48.30;;;;;;5030952;28;20302;-72
2021/12/16 03:59:08;;;;;;;19.13;2.90;;;8.30;48.70;;;;;;5030975;28;20211;-72
2021/12/16 04:01:34;;;;;;;18.50;2.17;;;8.10;49.90;;;;;;5031539;28;20686;-72
2021/12/16 04:04:00;;;;;;;12.63;1.67;;;8.30;49.30;;;;;;5031783;28;20193;-72
2021/12/16 04:06:29;;;;;;;14.27;2.03;;;8.50;49.60;;;;;;5030951;28;20173;-72
2021/12/16 04:08:56;;;;;;;19.13;2.22;;;8.80;48.00;;;;;;5030510;28;20687;-72
2021/12/16 04:11:26;;;;;;;14.93;2.58;;;8.90;47.20;;;;;;5031165;28;20276;-72
2021/12/16 04:13:56;;;;;;;12.55;1.77;;;8.90;46.60;;;;;;5030809;28;20176;-72
2021/12/16 04:16:30;;;;;;;18.58;2.47;;;9.10;46.30;;;;;;5031107;28;20573;-72
2021/12/16 04:19:01;;;;;;;17.42;2.08;;;9.10;45.80;;;;;;5031459;28;20250;-72
2021/12/16 04:21:28;;;;;;;25.23;2.78;;;9.00;45.80;;;;;;5031240;28;20263;-72
2021/12/16 04:23:57;;;;;;;19.65;2.78;;;8.90;45.80;;;;;;5030897;28;20178;-72
2021/12/16 04:26:26;;;;;;;17.13;2.10;;;8.80;46.00;;;;;;5031081;28;20180;-72
2021/12/16 04:28:52;;;;;;;17.77;2.10;;;9.10;45.50;;;;;;5031192;28;20192;-72
2021/12/16 04:31:18;;;;;;;18.23;2.13;;;9.00;45.40;;;;;;5031004;28;20181;-73
2021/12/16 04:33:44;;;;;;;16.33;1.97;;;8.80;45.80;;;;;;5031513;28;20590;-73
2021/12/16 04:36:11;;;;;;;38.65;4.13;;;8.50;46.50;;;;;;5030923;28;20423;-73
2021/12/16 04:38:40;;;;;;;22.73;2.58;;;8.80;47.20;;;;;;5030818;28;20683;-73
2021/12/16 04:41:11;;;;;;;10.18;1.85;;;8.90;46.60;;;;;;5031067;28;20196;-73
2021/12/16 04:43:40;;;;;;;16.73;2.63;;;8.90;46.20;;;;;;5026508;28;20185;-72
2021/12/16 04:46:11;;;;;;;43.42;5.28;;;8.80;46.30;;;;;;5028880;28;20597;-73
2021/12/16 04:48:39;;;;;;;15.02;1.85;;;8.90;46.30;;;;;;5030204;28;20227;-73
2021/12/16 04:51:06;;;;;;;22.10;3.38;;;9.00;45.90;;;;;;5030019;28;20433;-73
2021/12/16 04:53:32;;;;;;;21.75;2.35;;;8.90;46.10;;;;;;5016278;28;20193;-73
2021/12/16 04:55:58;;;;;;;27.00;3.33;;;9.00;46.20;;;;;;5030574;28;20185;-73
2021/12/16 04:58:24;;;;;;;24.80;2.70;;;8.90;46.30;;;;;;5030401;28;20215;-73
2021/12/16 05:00:51;;;;;;;16.10;2.13;;;9.00;46.00;;;;;;5031177;28;20565;-73
2021/12/16 05:03:17;;;;;;;25.80;3.05;;;8.90;46.00;;;;;;5030658;28;20228;-73
2021/12/16 05:05:42;;;;;;;25.38;2.85;;;8.40;47.50;;;;;;5031591;28;20173;-73
2021/12/16 05:08:08;;;;;;;20.93;3.00;;;8.50;48.30;;;;;;5034071;28;20614;-73
2021/12/16 05:10:34;;;;;;;17.50;2.27;;;8.50;47.80;;;;;;5034868;28;20260;-73
2021/12/16 05:13:01;;;;;;;23.83;2.47;;;8.60;47.40;;;;;;5034666;28;20255;-73
2021/12/16 05:15:32;;;;;;;33.92;3.20;;;8.50;47.40;;;;;;5034369;28;20419;-73
2021/12/16 05:18:01;;;;;;;14.90;2.17;;;8.70;47.00;;;;;;5035539;28;20200;-73
2021/12/16 05:20:31;;;;;;;27.05;3.20;;;8.90;45.80;;;;;;5034519;28;20238;-73
2021/12/16 05:28:14;;;;;;;15.20;2.13;;;9.30;43.90;;;;;;5033886;28;20222;-73
2021/12/16 05:30:40;;;;;;;12.35;1.83;;;9.20;44.10;;;;;;5034241;28;20197;-73
2021/12/16 05:33:07;;;;;;;16.80;2.15;;;9.20;44.60;;;;;;5043813;28;20240;-73
2021/12/16 05:35:33;;;;;;;28.60;3.08;;;9.60;42.60;;;;;;5043420;28;20184;-73
2021/12/16 05:37:59;;;;;;;22.35;2.90;;;9.40;43.40;;;;;;5042512;28;20581;-73
2021/12/16 05:40:28;;;;;;;17.93;2.10;;;9.30;43.90;;;;;;5038838;28;20184;-73
2021/12/16 05:42:59;;;;;;;16.30;2.22;;;9.30;43.70;;;;;;5034584;28;20892;-73
2021/12/16 05:45:27;;;;;;;17.48;2.13;;;9.40;43.80;;;;;;5034412;28;20185;-72
2021/12/16 05:47:55;;;;;;;18.63;2.78;;;9.40;42.90;;;;;;5033730;28;20188;-73
2021/12/16 05:50:22;;;;;;;26.63;2.70;;;9.40;43.70;;;;;;5033735;28;20181;-73
2021/12/16 05:52:48;;;;;;;27.17;2.85;;;9.10;44.80;;;;;;5031936;28;20199;-73
2021/12/16 05:55:16;;;;;;;20.60;2.70;;;9.20;43.60;;;;;;5034450;28;20189;-73
2021/12/16 05:57:43;;;;;;;24.52;2.72;;;9.10;44.20;;;;;;5032883;28;20187;-73
2021/12/16 06:00:19;;;;;;;17.05;2.65;;;9.10;45.00;;;;;;5026165;28;20200;-73
2021/12/16 06:02:45;;;;;;;13.20;2.20;;;9.30;43.50;;;;;;5033759;28;20686;-73
2021/12/16 06:05:12;;;;;;;15.60;2.10;;;9.40;42.50;;;;;;5033739;28;20177;-73
2021/12/16 06:07:38;;;;;;;13.15;2.08;;;;;;;;;;5033738;28;20423;-73
2021/12/16 06:10:05;;;;;;;23.40;2.85;;;9.50;42.10;;;;;;5032874;28;20191;-73
2021/12/16 06:12:31;;;;;;;15.82;1.98;;;9.20;43.70;;;;;;5033170;28;20239;-73
2021/12/16 06:15:21;;;;;;;16.40;2.23;;;9.10;44.40;;;;;;5033590;28;20180;-73
2021/12/16 06:28:34;;;;;;;19.25;3.10;;;9.20;44.30;;;;;;5033292;28;20243;-73
2021/12/16 06:31:00;;;;;;;17.67;2.15;;;9.20;44.20;;;;;;5032949;28;20220;-73
2021/12/16 06:33:26;;;;;;;27.25;2.70;;;9.20;43.80;;;;;;5033227;28;20192;-72
2021/12/16 06:35:53;;;;;;;21.45;2.63;;;8.80;44.90;;;;;;5032427;28;20188;-73
2021/12/16 06:38:21;;;;;;;25.10;4.10;;;8.80;44.90;;;;;;5032486;28;20201;-73
2021/12/16 06:40:48;;;;;;;22.55;3.38;;;8.80;45.40;;;;;;5033001;28;20710;-73
2021/12/16 06:43:15;;;;;;;19.98;2.80;;;8.70;45.80;;;;;;5032442;28;20223;-73
2021/12/16 06:45:45;;;;;;;11.93;1.67;;;8.80;45.80;;;;;;5032963;28;20180;-73
2021/12/16 06:48:12;;;;;;;18.10;1.98;;;8.90;45.30;;;;;;5033515;28;20264;-73
2021/12/16 06:51:04;;;;;;;16.50;2.22;;;8.90;45.60;;;;;;5033321;28;20199;-73
2021/12/16 06:53:37;;;;;;;40.55;3.53;;;8.50;46.60;;;;;;5032193;28;20189;-73
2021/12/16 06:58:35;;;;;;;21.00;2.70;;;8.10;47.90;;;;;;5032842;28;20204;-72
2021/12/16 07:01:12;;;;;;;26.00;2.95;;;7.40;51.50;;;;;;5032639;28;20239;-72
2021/12/16 07:03:47;;;;;;;25.58;2.65;;;6.90;57.60;;;;;;5032572;28;20169;-73
2021/12/16 07:06:21;;;;;;;31.90;4.05;;;6.90;62.00;;;;;;5032342;28;20183;-73
2021/12/16 07:08:49;;;;;;;18.60;1.95;;;6.70;62.20;;;;;;5025278;28;20719;-73
2021/12/16 07:11:16;;;;;;;20.02;2.25;;;7.70;54.00;;;;;;5032257;28;20177;-73
2021/12/16 07:13:45;;;;;;;16.20;2.08;;;7.60;53.80;;;;;;5032546;28;20191;-73
2021/12/16 07:16:12;;;;;;;29.00;3.40;;;7.30;57.20;;;;;;5031889;28;20177;-73
2021/12/16 07:18:39;;;;;;;20.45;2.40;;;7.60;57.50;;;;;;5032232;28;20228;-73
2021/12/16 07:21:06;;;;;;;13.95;2.05;;;8.50;52.30;;;;;;5031384;28;20207;-73
2021/12/16 07:23:32;;;;;;;31.10;3.25;;;8.50;52.10;;;;;;5032121;28;20183;-73
2021/12/16 07:25:58;;;;;;;18.93;2.27;;;8.70;51.30;;;;;;5031768;28;20224;-73
2021/12/16 07:28:25;;;;;;;30.88;3.53;;;4.70;50.00;;;;;;5031801;28;20200;-73
2021/12/16 07:30:51;;;;;;;17.15;2.42;;;8.40;53.60;;;;;;5023644;28;20187;-73
2021/12/16 07:33:17;;;;;;;21.17;2.60;;;8.40;53.20;;;;;;5032005;28;20180;-73
2021/12/16 07:35:44;;;;;;;34.17;3.47;;;8.40;52.90;;;;;;5032099;28;20191;-73
2021/12/16 07:38:10;;;;;;;35.88;4.57;;;8.50;53.00;;;;;;5030987;28;20204;-73
2021/12/16 08:14:17;;;;;;;36.88;5.13;;;9.40;47.50;;;;;;5030606;28;20175;-73
2021/12/16 08:16:43;;;;;;;17.42;3.10;;;9.00;50.20;;;;;;5031307;28;20169;-77
2021/12/16 08:19:09;;;;;;;23.63;3.45;;;9.50;48.20;;;;;;5029681;28;20266;-76
2021/12/16 08:21:36;;;;;;;20.05;2.53;;;9.80;46.20;;;;;;5032355;28;20196;-81
2021/12/16 08:24:05;;;;;;;21.27;2.50;;;9.60;46.40;;;;;;5032085;28;20193;-76
2021/12/16 08:26:32;;;;;;;11.13;1.90;;;9.30;47.50;;;;;;5031417;28;20233;-75
2021/12/16 08:28:57;;;;;;;20.40;2.95;;;8.50;51.30;;;;;;5030786;28;20192;-75
2021/12/16 08:31:24;;;;;;;18.90;2.87;;;9.00;50.00;;;;;;5028936;28;20203;-76
2021/12/16 08:33:50;;;;;;;19.67;2.40;;;9.50;47.50;;;;;;5027852;28;20192;-76
2021/12/16 08:36:17;;;;;;;25.10;2.80;;;9.40;48.20;;;;;;5030374;28;20189;-76
2021/12/16 08:38:43;;;;;;;15.15;2.17;;;9.20;48.70;;;;;;5030458;28;20196;-76
2021/12/16 08:41:16;;;;;;;17.48;4.10;;;9.40;49.10;;;;;;5028134;28;20218;-74
2021/12/16 08:43:44;;;;;;;27.02;2.63;;;9.40;48.40;;;;;;5015879;28;20712;-74
2021/12/16 08:46:12;;;;;;;31.33;4.25;;;8.70;50.20;;;;;;5027957;28;20622;-77
2021/12/16 08:48:39;;;;;;;15.15;2.25;;;8.80;51.20;;;;;;5030506;28;20268;-74
2021/12/16 08:51:05;;;;;;;13.75;1.80;;;8.90;50.20;;;;;;5031938;28;20255;-75
2021/12/16 08:53:31;;;;;;;17.70;2.50;;;8.80;50.60;;;;;;5031407;28;20204;-73
2021/12/16 08:55:58;;;;;;;29.93;3.60;;;8.90;49.80;;;;;;5030272;28;20938;-74
2021/12/16 08:58:26;;;;;;;18.75;2.53;;;8.40;52.70;;;;;;5030075;28;20623;-75
2021/12/16 09:01:04;;;;;;;18.30;3.10;;;8.70;52.70;;;;;;5030824;28;20208;-75
2021/12/16 09:03:30;;;;;;;28.05;3.15;;;9.50;48.10;;;;;;5024159;28;20235;-74
2021/12/16 09:05:56;;;;;;;25.63;2.50;;;9.80;46.80;;;;;;5030067;28;20179;-73
2021/12/16 09:08:22;;;;;;;25.75;3.17;;;9.90;46.00;;;;;;5029009;28;20258;-74
2021/12/16 09:10:48;;;;;;;12.63;2.03;;;9.90;45.80;;;;;;5028807;28;20188;-74
2021/12/16 09:13:17;;;;;;;27.60;3.40;;;9.60;47.60;;;;;;5030051;28;20509;-72
2021/12/16 09:18:16;;;;;;;49.45;3.28;;;;;;;;;;4986220;28;20691;-70
2021/12/16 09:20:41;;;;;;;27.80;1.92;;;9.60;46.90;;;;;;4990165;28;20182;-72
2021/12/16 09:23:08;;;;;;;31.67;3.00;;;;;;;;;;4990336;28;20189;-72
2021/12/16 09:25:34;;;;;;;41.35;2.65;;;10.10;43.80;;;;;;4990885;28;20240;-72
2021/12/16 09:28:01;;;;;;;32.77;2.23;;;;;;;;;;4991222;28;20201;-72
2021/12/16 09:30:29;;;;;;;47.08;2.80;;;10.10;44.10;;;;;;4990820;28;20268;-72
2021/12/16 09:32:59;;;;;;;31.40;3.00;;;10.20;43.00;;;;;;4991350;28;20266;-71
2021/12/16 09:35:28;;;;;;;29.13;2.65;;;10.30;42.70;;;;;;4990679;28;20241;-71
2021/12/16 09:37:54;;;;;;;28.40;2.55;;;10.10;43.80;;;;;;4990790;28;20206;-71
2021/12/16 09:40:23;;;;;;;47.38;3.45;;;10.30;42.70;;;;;;4990105;28;20177;-71
2021/12/16 09:42:51;;;;;;;36.42;2.90;;;10.40;42.20;;;;;;4990473;28;20289;-71
2021/12/16 09:45:18;;;;;;;40.17;3.28;;;;;;;;;;4990615;28;20646;-72
2021/12/16 09:47:44;;;;;;;51.30;3.15;;;10.20;43.20;;;;;;4989981;28;20200;-71
2021/12/16 09:50:12;;;;;;;49.88;3.72;;;;;;;;;;4989541;28;20668;-72
2021/12/16 09:52:38;;;;;;;30.85;3.15;;;;;;;;;;4984636;28;20201;-72
2021/12/16 09:55:06;;;;;;;37.10;3.60;;;10.50;42.20;;;;;;4994477;28;20224;-73
2021/12/16 09:57:32;;;;;;;39.75;2.95;;;10.80;41.00;;;;;;4994208;28;20213;-72
2021/12/16 09:59:58;;;;;;;30.67;2.33;;;10.60;42.10;;;;;;4994397;28;20551;-73
2021/12/16 10:02:25;;;;;;;64.70;3.55;;;;;;;;;;4989500;28;20199;-72
2021/12/16 10:04:51;;;;;;;45.38;3.92;;;;;;;;;;4979866;28;20183;-73
2021/12/16 10:07:18;;;;;;;48.13;3.80;;;;;;;;;;4993550;28;20189;-72
2021/12/16 10:09:46;;;;;;;37.22;2.33;;;10.30;42.40;;;;;;4994296;28;20174;-73
2021/12/16 10:12:17;;;;;;;32.47;3.00;;;;;;;;;;4994532;28;20179;-72
2021/12/16 10:15:00;;;;;;;45.63;4.47;;;10.60;42.20;;;;;;4994324;28;20171;-72
2021/12/16 10:17:36;;;;;;;37.25;2.95;;;10.50;41.20;;;;;;4992722;28;20221;-74
2021/12/16 10:20:16;;;;;;;31.40;2.88;;;10.40;41.50;;;;;;4993802;28;20235;-73
2021/12/16 10:22:43;;;;;;;25.50;2.38;;;;;;;;;;4993360;28;20607;-73
2021/12/16 10:25:17;;;;;;;27.42;2.85;;;;;;;;;;4993769;28;20174;-72
2021/12/16 10:28:09;;;;;;;47.72;3.15;;;9.40;45.90;;;;;;4985846;28;20193;-73
2021/12/16 10:30:41;;;;;;;35.83;2.95;;;;;;;;;;4993453;28;20179;-73
2021/12/16 10:33:11;;;;;;;26.33;2.10;;;;;;;;;;4980743;28;20183;-71
2021/12/16 10:35:37;;;;;;;87.60;4.22;;;10.00;42.40;;;;;;4978200;28;20617;-72
2021/12/16 10:38:05;;;;;;;46.30;3.63;;;;;;;;;;4992436;28;20187;-72
2021/12/16 10:40:33;;;;;;;50.25;3.55;;;;;;;;;;4992365;28;20509;-72
2021/12/16 10:43:20;;;;;;;44.00;3.80;;;9.80;43.40;;;;;;4992621;28;20705;-72
2021/12/16 10:45:48;;;;;;;52.40;3.35;;;;;;;;;;4991507;28;20179;-71
2021/12/16 10:48:19;;;;;;;34.47;2.90;;;;;;;;;;4986700;28;20630;-73
2021/12/16 10:50:51;;;;;;;58.60;3.58;;;;;;;;;;4991480;28;20180;-71
2021/12/16 10:53:37;;;;;;;26.13;2.47;;;;;;;;;;4992558;28;20270;-71
2021/12/16 10:56:04;;;;;;;40.13;3.25;;;;;;;;;;4992235;28;20201;-73
2021/12/16 10:58:50;;;;;;;42.83;2.97;;;;;;;;;;4992005;28;20268;-71
2021/12/16 11:02:01;;;;;;;41.22;3.22;;;10.80;40.60;;;;;;4992443;28;20195;-72
2021/12/16 11:04:30;;;;;;;44.75;2.95;;;10.80;41.00;;;;;;4932215;29;20225;-73
2021/12/16 11:07:16;;;;;;;26.40;2.95;;;10.60;40.10;;;;;;4935455;29;20240;-71
2021/12/16 11:09:45;;;;;;;31.90;2.70;;;;;;;;;;4933813;29;20202;-72
2021/12/16 11:12:23;;;;;;;31.05;2.50;;;;;;;;;;4935424;29;20193;-72
2021/12/16 11:14:57;;;;;;;46.90;3.10;;;11.00;39.60;;;;;;4932444;29;20189;-72
2021/12/16 11:17:25;;;;;;;30.40;2.78;;;;;;;;;;4934835;29;20223;-72
2021/12/16 11:20:08;;;;;;;44.05;3.25;;;10.80;39.80;;;;;;4932449;29;20194;-73
2021/12/16 11:22:36;;;;;;;26.45;2.40;;;10.50;40.20;;;;;;4936437;29;20222;-74
2021/12/16 11:25:18;;;;;;;33.72;2.75;;;11.00;38.60;;;;;;4935654;29;20184;-73
2021/12/16 11:27:49;;;;;;;35.05;3.08;;;;;;;;;;4935204;29;20212;-73
2021/12/16 11:30:24;;;;;;;34.00;2.90;;;;;;;;;;4933462;29;20177;-73
2021/12/16 11:32:52;;;;;;;148.52;6.40;;;11.00;39.90;;;;;;4931966;29;20240;-74
2021/12/16 11:35:38;;;;;;;48.45;3.08;;;;;;;;;;4969569;28;20200;-71
2021/12/16 11:38:25;;;;;;;28.10;3.08;;;;;;;;;;4991973;28;20299;-73
2021/12/16 11:41:00;;;;;;;33.83;3.20;;;10.90;39.80;;;;;;4992191;28;20265;-73
2021/12/16 11:43:33;;;;;;;44.92;3.20;;;11.10;39.80;;;;;;4991532;28;20207;-73
2021/12/16 11:46:00;;;;;;;66.03;4.38;;;10.80;39.20;;;;;;4991576;28;20231;-72
2021/12/16 11:48:31;;;;;;;25.15;2.45;;;;;;;;;;4991416;28;20175;-72
2021/12/16 11:51:08;;;;;;;37.20;3.50;;;;;;;;;;4992032;28;20188;-73
2021/12/16 11:53:37;;;;;;;46.38;3.33;;;10.90;40.10;;;;;;4991616;28;20188;-73
2021/12/16 11:56:04;;;;;;;69.75;5.55;;;10.90;40.20;;;;;;4991584;28;20218;-73
2021/12/16 11:58:31;;;;;;;148.45;10.43;;;;;;;;;;4988625;28;20177;-72
2021/12/16 12:00:58;;;;;;;21.80;2.67;;;;;;;;;;4990185;28;20219;-74
2021/12/16 12:03:33;;;;;;;46.40;4.10;;;;;;;;;;4991026;28;20175;-72
2021/12/16 12:05:59;;;;;;;53.47;3.60;;;11.10;39.10;;;;;;4991847;28;20332;-72
2021/12/16 12:08:26;;;;;;;32.37;3.63;;;;;;;;;;4991670;28;20675;-73
2021/12/16 12:11:06;;;;;;;28.33;3.15;;;;;;;;;;4991508;28;20520;-72
2021/12/16 12:13:44;;;;;;;34.22;2.88;;;;;;;;;;4985975;28;20637;-73
2021/12/16 12:16:16;;;;;;;84.38;5.10;;;;;;;;;;4990138;28;20221;-73
2021/12/16 12:18:42;;;;;;;32.15;3.10;;;;;;;;;;4989070;28;20170;-71
2021/12/16 12:21:42;;;;;;;22.37;2.83;;;11.40;38.20;;;;;;4991012;28;20564;-71
2021/12/16 12:24:16;;;;;;;41.97;3.78;;;11.30;38.50;;;;;;4991273;28;20435;-72
2021/12/16 12:26:54;;;;;;;23.15;2.35;;;10.80;39.40;;;;;;4991603;28;20234;-72
2021/12/16 12:29:23;;;;;;;33.42;3.03;;;;;;;;;;4991091;28;20173;-73
2021/12/16 12:31:58;;;;;;;27.13;2.63;;;10.40;42.30;;;;;;4991633;28;20177;-73
2021/12/16 12:34:25;;;;;;;86.05;4.97;;;;;;;;;;4986831;28;20190;-73
2021/12/16 12:36:53;;;;;;;28.60;3.17;;;;;;;;;;4989693;28;20291;-73
2021/12/16 12:39:23;;;;;;;41.20;3.72;;;10.90;40.50;;;;;;4990863;28;20182;-72
2021/12/16 12:41:49;;;;;;;31.95;3.83;;;11.10;40.50;;;;;;4990896;28;20276;-72
2021/12/16 12:44:15;;;;;;;29.73;3.30;;;11.30;39.50;;;;;;4983128;28;20182;-72
2021/12/16 12:46:42;;;;;;;31.40;3.53;;;11.50;39.20;;;;;;4990107;28;20213;-73
2021/12/16 12:49:11;;;;;;;37.67;2.95;;;;;;;;;;4990826;28;20179;-75
2021/12/16 12:51:43;;;;;;;57.25;3.80;;;;;;;;;;4991085;28;20208;-73
2021/12/16 12:54:25;;;;;;;42.67;3.60;;;;;;;;;;4991015;28;20178;-73
2021/12/16 12:56:53;;;;;;;26.23;2.42;;;11.00;40.90;;;;;;4986895;28;20194;-73
2021/12/16 12:59:20;;;;;;;43.22;4.38;;;11.00;40.70;;;;;;4990947;28;20176;-71
2021/12/16 13:01:51;;;;;;;37.67;3.42;;;;;;;;;;4990679;28;20209;-73
2021/12/16 13:04:42;;;;;;;52.65;3.53;;;11.20;40.80;;;;;;4990615;28;20213;-73
2021/12/16 13:07:11;;;;;;;38.72;3.78;;;11.20;39.90;;;;;;4988154;28;20615;-73
2021/12/16 13:09:44;;;;;;;39.78;3.65;;;11.30;40.00;;;;;;4991490;28;20178;-74
2021/12/16 13:12:43;;;;;;;29.50;2.90;;;;;;;;;;4986944;28;20268;-71
2021/12/16 13:15:32;;;;;;;32.35;2.65;;;;;;;;;;4991111;28;20179;-73
2021/12/16 13:26:39;;;;;;;19.80;2.13;;;;;;;;;;4950393;28;20608;-73
2021/12/16 13:29:13;;;;;;;33.50;3.55;;;;;;;;;;4995170;28;20273;-74
2021/12/16 13:31:52;;;;;;;18.50;2.53;;;;;;;;;;4987048;28;20200;-71
2021/12/16 13:34:59;;;;;;;45.13;4.15;;;10.40;42.10;;;;;;4981959;28;20657;-72
2021/12/16 13:37:30;;;;;;;56.15;4.40;;;;;;;;;;4993520;28;20613;-72
2021/12/16 13:40:06;;;;;;;48.80;3.65;;;;;;;;;;4994140;28;20169;-73
2021/12/16 13:42:44;;;;;;;56.55;3.97;;;;;;;;;;4993754;28;20244;-74
2021/12/16 13:45:12;;;;;;;16.35;1.80;;;;;;;;;;4994472;28;20170;-71
2021/12/16 14:02:31;;;;;;;45.40;3.38;;;;;;;;;;4992923;28;20206;-72
2021/12/16 14:05:05;;;;;;;29.30;3.03;;;;;;;;;;4987266;28;20174;-71
2021/12/16 14:07:55;;;;;;;61.35;4.15;;;;;;;;;;4993626;28;20842;-72
2021/12/16 14:10:28;;;;;;;25.80;2.53;;;;;;;;;;4993852;28;20173;-73
2021/12/16 14:15:56;;;;;;;34.85;3.30;;;11.00;40.90;;;;;;4993092;28;20186;-69
2021/12/16 14:24:19;;;;;;;50.58;4.00;;;;;;;;;;4992729;28;20216;-71
2021/12/16 14:26:54;;;;;;;48.30;3.65;;;;;;;;;;4990700;28;20227;-74
2021/12/16 14:40:15;;;;;;;40.38;3.55;;;;;;;;;;4993084;28;20192;-73
2021/12/16 14:43:37;;;;;;;33.10;2.80;;;9.60;47.50;;;;;;4989892;28;20235;-75
2021/12/16 14:45:45;;;;;;;37.03;2.97;;;10.00;45.80;;;;;;4977831;28;20206;-72
2021/12/16 14:50:43;;;;;;;155.57;8.90;;;;;;;;;;4988400;28;20247;-72
2021/12/16 14:53:15;;;;;;;25.98;2.60;;;;;;;;;;4991080;28;20178;-70
2021/12/16 14:55:41;;;;;;;35.65;3.13;;;;;;;;;;4992100;28;20180;-71
2021/12/16 14:58:07;;;;;;;24.58;2.08;;;;;;;;;;4992759;28;20201;-72
2021/12/16 15:00:38;;;;;;;45.50;3.10;;;;;;;;;;4992638;28;20180;-72
2021/12/16 15:03:09;;;;;;;36.50;2.67;;;;;;;;;;4992621;28;20467;-75
2021/12/16 15:05:50;;;;;;;27.85;3.10;;;10.70;43.10;;;;;;4992250;28;20191;-73
2021/12/16 15:08:56;;;;;;;28.65;2.35;;;10.80;42.30;;;;;;4992709;28;20227;-72
2021/12/16 15:11:35;;;;;;;28.70;2.55;;;;;;;;;;4990165;28;20185;-69
2021/12/16 15:14:07;;;;;;;30.67;3.05;;;;;;;;;;4992625;28;20251;-71
2021/12/16 15:17:01;;;;;;;27.17;2.63;;;10.60;42.80;;;;;;4991543;28;20210;-71
2021/12/16 15:45:23;;;;;;;51.03;3.78;;;;;;;;;;4992441;28;20168;-74
2021/12/16 15:48:09;;;;;;;39.38;3.47;;;10.80;41.80;;;;;;4990351;28;20718;-71
2021/12/16 15:50:54;;;;;;;40.58;3.63;;;;;;;;;;4991104;28;20175;-73
2021/12/16 15:53:25;;;;;;;37.25;2.80;;;;;;;;;;4991258;28;20184;-72
2021/12/16 15:56:01;;;;;;;33.45;3.60;;;;;;;;;;4992248;28;20178;-72
2021/12/16 15:58:31;;;;;;;40.47;3.15;;;11.00;41.40;;;;;;4990883;28;20180;-71
2021/12/16 16:01:00;;;;;;;50.00;4.10;;;;;;;;;;4991381;28;20617;-73
2021/12/16 16:03:28;;;;;;;39.58;3.45;;;10.90;41.40;;;;;;4991131;28;20168;-73
2021/12/16 16:05:57;;;;;;;49.67;3.42;;;10.80;42.10;;;;;;4991367;28;20230;-73
2021/12/16 16:08:25;;;;;;;44.42;3.95;;;;;;;;;;4990743;28;20177;-78
2021/12/16 16:10:53;;;;;;;44.10;3.92;;;;;;;;;;4991418;28;20680;-72
2021/12/16 16:13:25;;;;;;;57.60;4.38;;;;;;;;;;4991963;28;20180;-73
2021/12/16 16:15:54;;;;;;;34.05;3.15;;;;;;;;;;4993193;28;20483;-75
2021/12/16 16:21:07;;;;;;;38.35;3.10;;;;;;;;;;4991785;28;20173;-72
2021/12/16 16:23:36;;;;;;;28.88;3.00;;;;;;;;;;4987644;28;20189;-71
2021/12/16 16:26:03;;;;;;;53.40;4.85;;;;;;;;;;4990372;28;20272;-70
2021/12/16 16:28:29;;;;;;;42.92;2.97;;;;;;;;;;4991308;28;20191;-70
2021/12/16 16:30:56;;;;;;;65.47;4.20;;;;;;;;;;4990787;28;20688;-72
2021/12/16 16:33:23;;;;;;;32.05;3.17;;;10.80;41.80;;;;;;4985894;28;20229;-72
2021/12/16 16:35:55;;;;;;;38.88;3.38;;;;;;;;;;4988635;28;20203;-72
2021/12/16 16:38:24;;;;;;;51.05;3.50;;;;;;;;;;4988280;28;20172;-72
2021/12/16 16:40:51;;;;;;;34.30;3.30;;;;;;;;;;4991144;28;20406;-72
2021/12/16 16:43:22;;;;;;;35.83;3.20;;;;;;;;;;4990788;28;20232;-72
2021/12/16 16:45:50;;;;;;;43.97;3.42;;;;;;;;;;4989718;28;20206;-72
2021/12/16 16:51:06;;;;;;;40.28;4.05;;;;;;;;;;4988837;28;20737;-73
2021/12/16 16:53:46;;;;;;;53.28;4.32;;;10.80;42.50;;;;;;4990310;28;20188;-73
2021/12/16 16:56:12;;;;;;;66.70;4.20;;;;;;;;;;4989657;28;20979;-73
2021/12/16 16:58:38;;;;;;;54.25;4.18;;;;;;;;;;4990170;28;20588;-72
2021/12/16 17:01:04;;;;;;;30.48;2.80;;;;;;;;;;4990352;28;20177;-72
2021/12/16 17:03:31;;;;;;;46.75;3.55;;;;;;;;;;4994428;28;20511;-74
2021/12/16 17:05:59;;;;;;;23.95;3.65;;;;;;;;;;4993650;28;20180;-73
2021/12/16 17:08:27;;;;;;;34.22;3.20;;;;;;;;;;4993329;28;20170;-73
2021/12/16 17:10:53;;;;;;;14.32;1.90;;;;;;;;;;4995156;28;20180;-71
2021/12/16 17:13:36;;;;;;;27.47;2.97;;;;;;;;;;4994034;28;20579;-73
2021/12/16 17:18:43;;;;;;;33.20;3.90;;;10.60;42.40;;;;;;4994359;28;20285;-73
2021/12/16 17:21:21;;;;;;;28.33;2.80;;;;;;;;;;4994151;28;20187;-74
2021/12/16 17:23:50;;;;;;;33.80;3.47;;;10.70;42.10;;;;;;4994968;28;20521;-74
2021/12/16 17:26:25;;;;;;;64.78;4.78;;;;;;;;;;4993769;28;20258;-74
2021/12/16 17:28:55;;;;;;;33.35;3.25;;;;;;;;;;4991703;28;20204;-74
2021/12/16 17:31:29;;;;;;;80.35;5.68;;;;;;;;;;4968737;28;20664;-73
2021/12/16 17:34:04;;;;;;;39.85;3.72;;;;;;;;;;4991012;28;20653;-74
2021/12/16 17:36:31;;;;;;;38.30;3.63;;;;;;;;;;4992854;28;20197;-73
2021/12/16 17:39:06;;;;;;;43.70;4.40;;;;;;;;;;4994249;28;20508;-73
2021/12/16 17:41:33;;;;;;;32.65;2.83;;;;;;;;;;4994002;28;20683;-73
2021/12/16 17:43:58;;;;;;;54.67;4.07;;;10.40;41.80;;;;;;4994414;28;20656;-73
2021/12/16 17:46:24;;;;;;;40.00;3.90;;;10.00;42.50;;;;;;4992982;28;20194;-74
2021/12/16 17:48:51;;;;;;;38.90;3.70;;;;;;;;;;4993086;28;20928;-71
2021/12/16 17:51:21;;;;;;;43.75;4.50;;;10.10;41.80;;;;;;4991499;28;20220;-74
2021/12/16 17:53:49;;;;;;;36.15;3.03;;;9.70;43.90;;;;;;4994328;28;20194;-73
2021/12/16 17:56:15;;;;;;;51.03;4.45;;;;;;;;;;4993705;28;20276;-73
2021/12/16 17:58:42;;;;;;;25.13;2.90;;;;;;;;;;4983689;28;20186;-73
2021/12/16 18:01:29;;;;;;;24.10;3.72;;;;;;;;;;4992811;28;20712;-72
2021/12/16 18:03:55;;;;;;;39.92;3.50;;;;;;;;;;4993355;28;20244;-73
2021/12/16 18:06:29;;;;;;;39.93;3.53;;;;;;;;;;4993218;28;20677;-72
2021/12/16 18:09:02;;;;;;;19.25;2.75;;;10.00;41.80;;;;;;4993912;28;20445;-74
2021/12/16 18:11:31;;;;;;;48.47;4.28;;;9.80;43.80;;;;;;4989781;28;20248;-73